createdAt,value
2018-08-18T00:00:17.764Z,11.80
2018-08-18T00:00:51.647Z,9.70
2018-08-18T00:01:25.503Z,10.90
2018-08-18T00:02:00.560Z,11.30
2018-08-18T00:02:37.134Z,10.10
2018-08-18T00:03:11.016Z,10.60
2018-08-18T00:03:44.873Z,11.17
2018-08-18T00:04:23.913Z,11.40
2018-08-18T00:04:57.761Z,11.20
2018-08-18T00:05:31.615Z,11.77
2018-08-18T00:06:05.793Z,11.13
2018-08-18T00:06:39.731Z,11.60
2018-08-18T00:07:13.932Z,11.37
2018-08-18T00:07:48.319Z,10.43
2018-08-18T00:08:22.529Z,12.40
2018-08-18T00:08:56.362Z,11.63
2018-08-18T00:09:30.417Z,12.90
2018-08-18T00:10:06.525Z,12.30
2018-08-18T00:10:40.398Z,11.03
2018-08-18T00:11:14.239Z,11.60
2018-08-18T00:11:48.079Z,11.30
2018-08-18T00:12:27.280Z,12.50
2018-08-18T00:13:01.302Z,12.93
2018-08-18T00:13:51.713Z,12.90
2018-08-18T00:14:26.060Z,11.73
2018-08-18T00:15:00.838Z,11.80
2018-08-18T00:15:35.414Z,12.57
2018-08-18T00:16:10.615Z,12.57
2018-08-18T00:16:44.480Z,12.23
2018-08-18T00:17:18.657Z,12.47
2018-08-18T00:17:52.559Z,11.97
2018-08-18T00:18:26.769Z,13.87
2018-08-18T00:19:01.491Z,12.80
2018-08-18T00:19:35.723Z,12.57
2018-08-18T00:20:12.246Z,13.47
2018-08-18T00:20:46.455Z,11.60
2018-08-18T00:21:20.638Z,12.23
2018-08-18T00:21:54.557Z,12.70
2018-08-18T00:22:29.374Z,13.90
2018-08-18T00:23:03.294Z,13.97
2018-08-18T00:23:37.535Z,13.00
2018-08-18T00:24:12.220Z,12.73
2018-08-18T00:24:51.406Z,12.00
2018-08-18T00:25:25.732Z,12.40
2018-08-18T00:25:59.610Z,11.23
2018-08-18T00:26:33.484Z,12.20
2018-08-18T00:27:07.402Z,13.03
2018-08-18T00:27:41.627Z,12.33
2018-08-18T00:28:20.160Z,11.97
2018-08-18T00:28:54.352Z,12.17
2018-08-18T00:29:28.185Z,11.73
2018-08-18T00:30:07.764Z,11.50
2018-08-18T00:30:41.607Z,13.20
2018-08-18T00:31:16.056Z,12.90
2018-08-18T00:31:49.906Z,12.70
2018-08-18T00:32:24.015Z,12.60
2018-08-18T00:32:57.881Z,12.30
2018-08-18T00:33:31.738Z,12.30
2018-08-18T00:34:05.725Z,11.83
2018-08-18T00:34:45.122Z,12.30
2018-08-18T00:35:18.992Z,12.80
2018-08-18T00:35:53.359Z,12.10
2018-08-18T00:36:27.561Z,11.90
2018-08-18T00:37:01.740Z,12.57
2018-08-18T00:37:36.172Z,11.40
2018-08-18T00:38:10.099Z,13.47
2018-08-18T00:38:43.940Z,12.63
2018-08-18T00:39:17.824Z,12.53
2018-08-18T00:39:52.277Z,12.27
2018-08-18T00:40:26.472Z,12.70
2018-08-18T00:41:00.665Z,12.53
2018-08-18T00:41:34.904Z,13.00
2018-08-18T00:42:08.775Z,11.90
2018-08-18T00:42:42.981Z,13.70
2018-08-18T00:43:17.965Z,12.60
2018-08-18T00:43:52.166Z,12.43
2018-08-18T00:44:26.010Z,12.30
2018-08-18T00:44:59.912Z,12.27
2018-08-18T00:45:34.119Z,12.67
2018-08-18T00:46:08.312Z,13.40
2018-08-18T00:46:42.176Z,12.30
2018-08-18T00:47:16.364Z,13.47
2018-08-18T00:47:50.975Z,12.70
2018-08-18T00:48:24.815Z,13.07
2018-08-18T00:48:58.956Z,12.73
2018-08-18T00:49:32.819Z,13.17
2018-08-18T00:50:07.158Z,13.50
2018-08-18T00:50:44.901Z,12.03
2018-08-18T00:51:18.769Z,12.53
2018-08-18T00:51:52.646Z,12.73
2018-08-18T00:52:27.459Z,13.90
2018-08-18T00:53:01.769Z,12.57
2018-08-18T00:53:36.006Z,13.13
2018-08-18T00:54:10.261Z,13.90
2018-08-18T00:54:44.461Z,13.73
2018-08-18T00:55:18.417Z,11.90
2018-08-18T00:55:52.425Z,12.93
2018-08-18T00:56:27.347Z,13.20
2018-08-18T00:57:05.038Z,12.90
2018-08-18T00:57:38.903Z,13.77
2018-08-18T00:58:18.503Z,13.73
2018-08-18T00:58:54.761Z,12.40
2018-08-18T00:59:38.478Z,13.57
2018-08-18T01:00:12.721Z,13.60
2018-08-18T01:00:51.001Z,13.67
2018-08-18T01:01:24.869Z,12.97
2018-08-18T01:01:59.061Z,13.10
2018-08-18T01:02:33.605Z,12.43
2018-08-18T01:03:07.453Z,12.60
2018-08-18T01:03:47.576Z,13.80
2018-08-18T01:04:21.510Z,13.13
2018-08-18T01:04:55.999Z,13.17
2018-08-18T01:05:30.201Z,12.47
2018-08-18T01:06:16.563Z,13.07
2018-08-18T01:06:50.448Z,12.50
2018-08-18T01:07:28.515Z,12.60
2018-08-18T01:08:02.503Z,13.17
2018-08-18T01:08:36.839Z,12.50
2018-08-18T01:09:13.048Z,11.60
2018-08-18T01:09:47.365Z,12.40
2018-08-18T01:10:21.670Z,13.30
2018-08-18T01:10:56.403Z,12.53
2018-08-18T01:11:30.913Z,12.93
2018-08-18T01:12:05.109Z,12.33
2018-08-18T01:12:39.266Z,12.87
2018-08-18T01:13:17.091Z,13.00
2018-08-18T01:13:51.698Z,11.70
2018-08-18T01:14:25.937Z,13.30
2018-08-18T01:15:00.272Z,12.77
2018-08-18T01:15:34.475Z,12.00
2018-08-18T01:16:09.047Z,12.97
2018-08-18T01:16:48.359Z,12.80
2018-08-18T01:17:22.398Z,12.30
2018-08-18T01:17:56.688Z,12.93
2018-08-18T01:18:30.526Z,12.83
2018-08-18T01:19:04.839Z,13.57
2018-08-18T01:19:39.038Z,13.53
2018-08-18T01:20:12.878Z,13.80
2018-08-18T01:20:47.066Z,14.10
2018-08-18T01:21:21.834Z,12.50
2018-08-18T01:21:58.343Z,12.20
2018-08-18T01:22:32.183Z,12.30
2018-08-18T01:23:06.384Z,12.50
2018-08-18T01:23:40.265Z,12.83
2018-08-18T01:24:14.136Z,12.60
2018-08-18T01:24:49.562Z,13.60
2018-08-18T01:25:24.033Z,12.93
2018-08-18T01:25:57.898Z,12.10
2018-08-18T01:26:31.790Z,12.90
2018-08-18T01:27:05.849Z,12.43
2018-08-18T01:27:49.874Z,13.03
2018-08-18T01:28:24.426Z,12.03
2018-08-18T01:29:14.090Z,11.90
2018-08-18T01:29:57.594Z,11.97
2018-08-18T01:30:31.444Z,11.40
2018-08-18T01:31:22.713Z,11.57
2018-08-18T01:31:56.905Z,10.30
2018-08-18T01:32:31.535Z,12.20
2018-08-18T01:33:05.447Z,11.37
2018-08-18T01:33:39.585Z,13.50
2018-08-18T01:34:13.440Z,12.07
2018-08-18T01:34:47.334Z,12.93
2018-08-18T01:35:21.483Z,11.17
2018-08-18T01:35:55.320Z,12.07
2018-08-18T01:36:29.190Z,12.70
2018-08-18T01:37:08.410Z,11.67
2018-08-18T01:37:42.352Z,11.50
2018-08-18T01:38:16.189Z,13.03
2018-08-18T01:38:50.048Z,10.90
2018-08-18T01:39:23.897Z,11.93
2018-08-18T01:39:58.089Z,11.93
2018-08-18T01:40:31.965Z,11.90
2018-08-18T01:41:14.051Z,12.50
2018-08-18T01:41:47.901Z,11.37
2018-08-18T01:42:22.054Z,10.93
2018-08-18T01:42:56.265Z,12.30
2018-08-18T01:43:30.140Z,10.97
2018-08-18T01:44:12.562Z,10.17
2018-08-18T01:44:46.752Z,12.03
2018-08-18T01:45:20.954Z,11.67
2018-08-18T01:45:54.779Z,11.30
2018-08-18T01:46:28.968Z,12.40
2018-08-18T01:57:02.348Z,11.20
2018-08-18T01:57:36.568Z,9.53
2018-08-18T01:58:10.429Z,10.17
2018-08-18T01:58:44.304Z,10.70
2018-08-18T01:59:18.921Z,10.20
2018-08-18T01:59:52.752Z,9.80
2018-08-18T02:00:27.469Z,9.50
2018-08-18T02:01:01.328Z,9.37
2018-08-18T02:01:35.160Z,10.07
2018-08-18T02:02:12.268Z,10.30
2018-08-18T02:02:46.486Z,9.77
2018-08-18T02:03:20.376Z,10.67
2018-08-18T02:03:54.536Z,10.37
2018-08-18T02:04:28.384Z,9.40
2018-08-18T02:05:11.487Z,10.30
2018-08-18T02:05:45.364Z,10.03
2018-08-18T02:06:19.870Z,10.00
2018-08-18T02:06:54.484Z,9.90
2018-08-18T02:07:31.043Z,10.47
2018-08-18T02:08:05.559Z,10.23
2018-08-18T02:08:53.874Z,10.10
2018-08-18T02:09:27.770Z,9.10
2018-08-18T02:10:01.767Z,9.67
2018-08-18T02:10:35.646Z,9.23
2018-08-18T02:11:09.498Z,9.00
2018-08-18T02:11:45.105Z,9.80
2018-08-18T02:12:19.504Z,10.40
2018-08-18T02:13:04.254Z,10.03
2018-08-18T02:13:38.092Z,9.80
2018-08-18T02:14:27.628Z,10.30
2018-08-18T02:15:01.857Z,8.80
2018-08-18T02:15:35.687Z,9.37
2018-08-18T02:16:09.573Z,9.13
2018-08-18T02:16:43.601Z,9.20
2018-08-18T02:17:23.504Z,8.43
2018-08-18T02:17:57.358Z,8.33
2018-08-18T02:18:31.282Z,8.60
2018-08-18T02:19:05.469Z,9.03
2018-08-18T02:19:39.351Z,8.50
2018-08-18T02:20:13.544Z,8.60
2018-08-18T02:20:47.725Z,8.80
2018-08-18T02:21:31.945Z,7.83
2018-08-18T02:22:06.517Z,8.77
2018-08-18T02:22:40.366Z,9.40
2018-08-18T02:23:14.573Z,8.17
2018-08-18T02:23:48.404Z,8.80
2018-08-18T02:24:22.240Z,9.00
2018-08-18T02:24:56.442Z,8.37
2018-08-18T02:25:30.644Z,8.63
2018-08-18T02:26:05.214Z,8.00
2018-08-18T02:26:39.062Z,7.90
2018-08-18T02:27:13.818Z,8.60
2018-08-18T02:27:48.022Z,7.80
2018-08-18T02:28:28.321Z,9.00
2018-08-18T02:29:02.832Z,8.57
2018-08-18T02:29:37.044Z,7.47
2018-08-18T02:30:18.423Z,8.30
2018-08-18T02:30:52.349Z,7.87
2018-08-18T02:31:26.184Z,8.60
2018-08-18T02:32:00.071Z,8.00
2018-08-18T02:32:36.550Z,8.63
2018-08-18T02:33:10.544Z,7.27
2018-08-18T02:33:44.382Z,8.30
2018-08-18T02:34:18.244Z,8.00
2018-08-18T02:34:52.093Z,8.60
2018-08-18T02:35:26.271Z,9.50
2018-08-18T02:36:00.105Z,7.70
2018-08-18T02:36:34.946Z,7.20
2018-08-18T02:37:08.803Z,7.87
2018-08-18T02:37:42.846Z,8.37
2018-08-18T02:38:17.102Z,8.00
2018-08-18T02:38:55.530Z,8.93
2018-08-18T02:39:29.426Z,8.27
2018-08-18T02:40:04.736Z,8.70
2018-08-18T02:40:39.085Z,8.10
2018-08-18T02:41:13.258Z,7.60
2018-08-18T02:41:58.170Z,8.23
2018-08-18T02:42:32.670Z,7.40
2018-08-18T02:43:18.054Z,7.40
2018-08-18T02:43:51.932Z,6.97
2018-08-18T02:44:25.766Z,8.03
2018-08-18T02:44:59.974Z,8.67
2018-08-18T02:45:34.197Z,7.73
2018-08-18T02:46:19.290Z,8.00
2018-08-18T02:46:53.126Z,8.40
2018-08-18T02:47:27.296Z,7.60
2018-08-18T02:48:13.082Z,7.80
2018-08-18T02:48:46.910Z,7.90
2018-08-18T02:49:20.744Z,8.17
2018-08-18T02:49:55.392Z,7.57
2018-08-18T02:50:29.278Z,8.10
2018-08-18T02:51:03.448Z,7.77
2018-08-18T02:51:37.664Z,7.90
2018-08-18T02:52:15.760Z,7.57
2018-08-18T02:52:49.609Z,8.07
2018-08-18T02:53:26.159Z,8.20
2018-08-18T02:54:01.162Z,8.60
2018-08-18T02:54:39.658Z,8.03
2018-08-18T02:55:13.869Z,7.43
2018-08-18T02:55:47.693Z,8.13
2018-08-18T02:56:23.153Z,7.93
2018-08-18T02:56:57.006Z,7.60
2018-08-18T02:57:34.154Z,7.60
2018-08-18T02:58:08.388Z,7.60
2018-08-18T02:58:45.737Z,8.00
2018-08-18T02:59:19.724Z,7.67
2018-08-18T02:59:55.027Z,8.70
2018-08-18T03:00:34.761Z,7.43
2018-08-18T03:01:08.597Z,8.67
2018-08-18T03:01:43.617Z,8.37
2018-08-18T03:02:57.542Z,7.87
2018-08-18T03:03:31.733Z,8.73
2018-08-18T03:04:10.594Z,8.57
2018-08-18T03:04:47.343Z,8.33
2018-08-18T03:05:21.232Z,7.70
2018-08-18T03:05:59.658Z,7.07
2018-08-18T03:06:33.533Z,8.00
2018-08-18T03:07:07.374Z,7.73
2018-08-18T03:07:45.700Z,7.50
2018-08-18T03:08:20.094Z,8.30
2018-08-18T03:08:53.933Z,7.50
2018-08-18T03:09:27.796Z,8.90
2018-08-18T03:10:07.736Z,8.60
2018-08-18T03:10:41.947Z,7.90
2018-08-18T03:11:15.794Z,7.40
2018-08-18T03:11:49.636Z,8.33
2018-08-18T03:12:25.220Z,7.60
2018-08-18T03:13:00.459Z,7.10
2018-08-18T03:13:34.632Z,7.77
2018-08-18T03:14:08.769Z,7.77
2018-08-18T03:14:42.627Z,8.40
2018-08-18T03:15:31.762Z,7.47
2018-08-18T03:16:08.639Z,8.40
2018-08-18T03:16:42.981Z,7.70
2018-08-18T03:17:17.195Z,7.60
2018-08-18T03:17:51.041Z,7.63
2018-08-18T03:18:30.989Z,8.40
2018-08-18T03:19:05.180Z,7.73
2018-08-18T03:19:39.055Z,7.70
2018-08-18T03:20:13.227Z,8.03
2018-08-18T03:20:47.118Z,8.47
2018-08-18T03:21:26.355Z,8.77
2018-08-18T03:22:00.179Z,8.03
2018-08-18T03:22:39.365Z,8.27
2018-08-18T03:23:13.211Z,8.50
2018-08-18T03:23:58.707Z,8.50
2018-08-18T03:24:32.553Z,8.27
2018-08-18T03:25:06.445Z,8.00
2018-08-18T03:25:44.717Z,8.17
2018-08-18T03:26:20.789Z,8.43
2018-08-18T03:26:56.561Z,8.00
2018-08-18T03:27:30.414Z,7.77
2018-08-18T03:28:04.324Z,7.60
2018-08-18T03:28:42.704Z,7.93
2018-08-18T03:29:17.540Z,7.30
2018-08-18T03:29:52.413Z,7.80
2018-08-18T03:30:26.285Z,8.10
2018-08-18T03:31:00.145Z,6.83
2018-08-18T03:31:34.374Z,7.90
2018-08-18T03:32:08.568Z,8.37
2018-08-18T03:32:42.410Z,7.77
2018-08-18T03:33:16.261Z,8.10
2018-08-18T03:33:50.425Z,8.07
2018-08-18T03:34:24.614Z,7.90
2018-08-18T03:34:58.478Z,8.10
2018-08-18T03:35:32.324Z,8.90
2018-08-18T03:36:21.844Z,7.40
2018-08-18T03:36:56.595Z,7.27
2018-08-18T03:37:31.857Z,8.23
2018-08-18T03:38:05.685Z,8.87
2018-08-18T03:38:39.528Z,7.67
2018-08-18T03:39:21.164Z,7.77
2018-08-18T03:39:55.137Z,8.30
2018-08-18T03:40:28.964Z,8.37
2018-08-18T03:41:02.891Z,7.97
2018-08-18T03:41:36.728Z,7.83
2018-08-18T03:42:10.881Z,8.00
2018-08-18T03:42:45.068Z,7.00
2018-08-18T03:43:18.892Z,6.77
2018-08-18T03:43:53.549Z,8.20
2018-08-18T03:44:27.392Z,8.40
2018-08-18T03:45:01.554Z,7.80
2018-08-18T03:45:35.411Z,7.53
2018-08-18T03:46:09.323Z,8.20
2018-08-18T03:46:43.152Z,8.00
2018-08-18T03:47:16.975Z,6.90
2018-08-18T03:47:50.807Z,7.40
2018-08-18T03:48:24.656Z,7.53
2018-08-18T03:48:58.476Z,7.40
2018-08-18T03:49:32.719Z,8.40
2018-08-18T03:50:06.930Z,7.63
2018-08-18T03:50:46.944Z,8.20
2018-08-18T03:51:29.025Z,8.03
2018-08-18T03:52:03.441Z,7.87
2018-08-18T03:52:37.261Z,7.13
2018-08-18T03:53:11.116Z,8.43
2018-08-18T03:53:44.949Z,8.27
2018-08-18T03:54:19.197Z,7.60
2018-08-18T03:54:53.229Z,7.60
2018-08-18T03:55:42.955Z,7.43
2018-08-18T03:56:16.816Z,7.27
2018-08-18T03:56:50.933Z,7.00
2018-08-18T03:57:30.405Z,6.70
2018-08-18T03:58:04.271Z,7.20
2018-08-18T03:58:55.265Z,8.10
2018-08-18T03:59:29.122Z,7.43
2018-08-18T04:00:02.986Z,7.17
2018-08-18T04:00:37.153Z,8.50
2018-08-18T04:01:11.033Z,7.87
2018-08-18T04:01:51.339Z,6.47
2018-08-18T04:02:25.331Z,7.50
2018-08-18T04:02:59.158Z,8.07
2018-08-18T04:03:33.004Z,7.47
2018-08-18T04:04:08.201Z,6.43
2018-08-18T04:04:42.061Z,7.40
2018-08-18T04:05:15.924Z,7.10
2018-08-18T04:05:49.781Z,7.03
2018-08-18T04:06:23.658Z,6.77
2018-08-18T04:06:58.898Z,7.30
2018-08-18T04:07:35.461Z,7.13
2018-08-18T04:08:09.317Z,7.37
2018-08-18T04:08:43.164Z,7.10
2018-08-18T04:09:22.804Z,7.70
2018-08-18T04:10:01.116Z,7.93
2018-08-18T04:10:34.983Z,6.97
2018-08-18T04:11:08.833Z,7.37
2018-08-18T04:11:42.656Z,7.37
2018-08-18T04:12:16.512Z,7.70
2018-08-18T04:12:50.356Z,7.23
2018-08-18T04:13:24.193Z,7.60
2018-08-18T04:13:58.020Z,7.03
2018-08-18T04:14:37.342Z,7.50
2018-08-18T04:15:11.179Z,6.90
2018-08-18T04:15:45.020Z,7.90
2018-08-18T04:16:18.897Z,6.77
2018-08-18T04:16:53.010Z,7.13
2018-08-18T04:17:31.010Z,7.20
2018-08-18T04:18:10.048Z,8.13
2018-08-18T04:18:45.571Z,7.60
2018-08-18T04:19:21.188Z,8.23
2018-08-18T04:19:55.017Z,7.10
2018-08-18T04:20:28.875Z,7.60
2018-08-18T04:21:03.044Z,7.57
2018-08-18T04:21:36.885Z,7.17
2018-08-18T04:22:10.706Z,7.70
2018-08-18T04:22:44.549Z,8.90
2018-08-18T04:23:18.464Z,7.17
2018-08-18T04:23:52.289Z,6.97
2018-08-18T04:24:32.701Z,7.40
2018-08-18T04:25:07.214Z,7.40
2018-08-18T04:25:41.069Z,7.47
2018-08-18T04:26:14.919Z,6.80
2018-08-18T04:26:50.244Z,7.27
2018-08-18T04:27:44.329Z,7.50
2018-08-18T04:28:18.500Z,7.40
2018-08-18T04:28:52.731Z,7.87
2018-08-18T04:29:26.573Z,7.00
2018-08-18T04:30:00.423Z,7.00
2018-08-18T04:30:34.267Z,7.20
2018-08-18T04:31:08.443Z,6.20
2018-08-18T04:31:42.615Z,7.60
2018-08-18T04:32:16.441Z,7.40
2018-08-18T04:32:55.085Z,6.90
2018-08-18T04:33:29.343Z,7.50
2018-08-18T04:34:04.410Z,7.20
2018-08-18T04:34:38.779Z,7.00
2018-08-18T04:35:12.693Z,6.97
2018-08-18T04:35:50.918Z,6.70
2018-08-18T04:36:24.793Z,6.80
2018-08-18T04:36:59.895Z,6.13
2018-08-18T04:37:33.746Z,6.57
2018-08-18T04:38:07.954Z,6.43
2018-08-18T04:38:42.139Z,6.20
2018-08-18T04:39:15.968Z,6.20
2018-08-18T04:39:49.832Z,6.00
2018-08-18T04:40:24.528Z,6.97
2018-08-18T04:40:58.375Z,5.90
2018-08-18T04:41:32.217Z,5.80
2018-08-18T04:42:06.255Z,7.00
2018-08-18T04:42:41.230Z,6.10
2018-08-18T04:43:15.045Z,6.13
2018-08-18T04:43:48.963Z,5.50
2018-08-18T04:44:22.993Z,6.37
2018-08-18T04:44:56.835Z,5.53
2018-08-18T04:45:31.062Z,6.17
2018-08-18T04:46:05.269Z,5.70
2018-08-18T04:46:39.123Z,6.00
2018-08-18T04:47:23.201Z,5.70
2018-08-18T04:47:57.389Z,5.87
2018-08-18T04:48:32.137Z,5.40
2018-08-18T04:49:06.787Z,6.60
2018-08-18T04:49:40.651Z,6.07
2018-08-18T04:50:14.860Z,6.47
2018-08-18T04:50:48.708Z,5.43
2018-08-18T04:51:23.335Z,5.63
2018-08-18T04:51:57.529Z,5.70
2018-08-18T04:52:31.369Z,5.87
2018-08-18T04:53:05.546Z,5.50
2018-08-18T04:53:39.390Z,5.23
2018-08-18T04:54:13.223Z,5.00
2018-08-18T04:54:47.065Z,5.60
2018-08-18T04:55:21.065Z,5.37
2018-08-18T04:55:55.271Z,5.10
2018-08-18T04:56:29.147Z,5.33
2018-08-18T04:57:03.388Z,5.77
2018-08-18T04:57:37.531Z,5.73
2018-08-18T04:58:11.397Z,6.10
2018-08-18T04:58:45.591Z,5.30
2018-08-18T04:59:19.841Z,5.13
2018-08-18T04:59:53.869Z,5.70
2018-08-18T05:00:28.039Z,4.67
2018-08-18T05:01:02.217Z,5.20
2018-08-18T05:01:36.417Z,6.10
2018-08-18T05:02:10.619Z,5.50
2018-08-18T05:02:53.002Z,4.97
2018-08-18T05:03:26.887Z,4.93
2018-08-18T05:04:05.834Z,5.23
2018-08-18T05:04:39.685Z,5.00
2018-08-18T05:05:15.041Z,5.23
2018-08-18T05:05:49.030Z,5.33
2018-08-18T05:06:26.059Z,5.20
2018-08-18T05:06:59.901Z,4.70
2018-08-18T05:07:38.255Z,5.30
2018-08-18T05:08:12.449Z,5.40
2018-08-18T05:08:46.296Z,5.37
2018-08-18T05:09:20.115Z,5.07
2018-08-18T05:09:53.968Z,5.07
2018-08-18T05:10:28.408Z,4.50
2018-08-18T05:11:02.616Z,4.77
2018-08-18T05:11:36.837Z,4.27
2018-08-18T05:12:10.875Z,5.10
2018-08-18T05:12:45.026Z,4.70
2018-08-18T05:13:18.867Z,4.50
2018-08-18T05:13:52.701Z,4.53
2018-08-18T05:14:26.555Z,4.80
2018-08-18T05:15:00.717Z,4.57
2018-08-18T05:15:35.238Z,4.53
2018-08-18T05:16:09.420Z,5.07
2018-08-18T05:16:43.602Z,4.57
2018-08-18T05:17:17.772Z,5.20
2018-08-18T05:17:51.619Z,4.53
2018-08-18T05:18:25.476Z,5.00
2018-08-18T05:18:59.308Z,4.40
2018-08-18T05:19:33.330Z,4.47
2018-08-18T05:20:19.132Z,4.23
2018-08-18T05:20:52.961Z,4.00
2018-08-18T05:21:27.135Z,4.53
2018-08-18T05:22:00.994Z,4.37
2018-08-18T05:22:35.192Z,4.30
2018-08-18T05:23:22.663Z,4.20
2018-08-18T05:23:56.828Z,4.43
2018-08-18T05:24:31.644Z,4.60
2018-08-18T05:25:05.490Z,4.37
2018-08-18T05:25:40.806Z,4.17
2018-08-18T05:26:15.006Z,4.10
2018-08-18T05:26:49.435Z,4.67
2018-08-18T05:27:23.296Z,4.07
2018-08-18T05:27:57.825Z,4.37
2018-08-18T05:28:32.517Z,4.37
2018-08-18T05:29:06.694Z,4.10
2018-08-18T05:29:40.833Z,4.57
2018-08-18T05:30:15.022Z,4.77
2018-08-18T05:30:51.187Z,4.10
2018-08-18T05:31:25.354Z,4.80
2018-08-18T05:31:59.265Z,4.13
2018-08-18T05:32:33.712Z,4.30
2018-08-18T05:33:08.082Z,4.90
2018-08-18T05:33:42.294Z,4.30
2018-08-18T05:34:16.288Z,4.50
2018-08-18T05:34:50.112Z,4.40
2018-08-18T05:35:24.291Z,4.33
2018-08-18T05:35:58.834Z,4.87
2018-08-18T05:36:32.725Z,4.60
2018-08-18T05:37:07.131Z,4.63
2018-08-18T05:37:40.995Z,4.27
2018-08-18T05:38:14.836Z,4.30
2018-08-18T05:38:48.958Z,4.80
2018-08-18T05:39:22.808Z,5.10
2018-08-18T05:39:57.285Z,4.73
2018-08-18T05:40:32.233Z,4.87
2018-08-18T05:41:06.062Z,4.50
2018-08-18T05:41:39.889Z,4.30
2018-08-18T05:42:13.750Z,4.70
2018-08-18T05:42:47.564Z,4.53
2018-08-18T05:43:21.818Z,4.77
2018-08-18T05:43:55.666Z,5.10
2018-08-18T05:44:29.489Z,4.50
2018-08-18T05:45:18.979Z,3.93
2018-08-18T05:45:53.178Z,4.63
2018-08-18T05:46:27.072Z,4.17
2018-08-18T05:47:00.918Z,3.40
2018-08-18T05:47:34.786Z,4.20
2018-08-18T05:48:08.811Z,4.13
2018-08-18T05:48:42.622Z,4.00
2018-08-18T05:49:17.011Z,4.83
2018-08-18T05:49:50.882Z,4.07
2018-08-18T05:50:25.577Z,4.30
2018-08-18T05:50:59.412Z,4.00
2018-08-18T05:51:39.786Z,4.30
2018-08-18T05:52:13.670Z,4.20
2018-08-18T05:52:47.611Z,4.07
2018-08-18T05:53:24.968Z,4.10
2018-08-18T05:53:58.781Z,4.07
2018-08-18T05:54:32.625Z,4.10
2018-08-18T05:55:06.845Z,4.13
2018-08-18T05:55:40.733Z,4.17
2018-08-18T05:56:14.876Z,4.00
2018-08-18T05:56:48.697Z,4.20
2018-08-18T05:57:22.541Z,3.30
2018-08-18T05:57:56.373Z,4.27
2018-08-18T05:59:01.843Z,4.30
2018-08-18T05:59:36.053Z,4.00
2018-08-18T06:00:15.487Z,3.60
2018-08-18T06:00:51.309Z,3.80
2018-08-18T06:01:27.080Z,3.73
2018-08-18T06:02:00.957Z,4.20
2018-08-18T06:02:34.856Z,3.73
2018-08-18T06:03:08.855Z,4.83
2018-08-18T06:03:42.698Z,4.20
2018-08-18T06:04:17.967Z,3.80
2018-08-18T06:04:52.126Z,4.07
2018-08-18T06:05:29.093Z,4.20
2018-08-18T06:06:02.921Z,3.90
2018-08-18T06:06:37.306Z,4.33
2018-08-18T06:07:11.186Z,4.13
2018-08-18T06:07:45.049Z,4.30
2018-08-18T06:08:25.779Z,3.90
2018-08-18T06:09:00.038Z,4.00
2018-08-18T06:09:33.928Z,3.87
2018-08-18T06:10:07.772Z,3.87
2018-08-18T06:10:42.128Z,3.70
2018-08-18T06:11:16.297Z,3.80
2018-08-18T06:11:50.129Z,4.03
2018-08-18T06:12:24.469Z,3.80
2018-08-18T06:13:03.469Z,3.83
2018-08-18T06:13:37.483Z,4.40
2018-08-18T06:14:12.931Z,3.83
2018-08-18T06:14:48.573Z,4.60
2018-08-18T06:15:22.492Z,4.27
2018-08-18T06:16:08.798Z,4.10
2018-08-18T06:16:43.335Z,3.67
2018-08-18T06:17:22.966Z,4.03
2018-08-18T06:17:57.160Z,4.23
2018-08-18T06:18:31.050Z,3.43
2018-08-18T06:19:05.305Z,4.00
2018-08-18T06:19:39.165Z,4.33
2018-08-18T06:20:13.065Z,4.53
2018-08-18T06:20:46.903Z,3.90
2018-08-18T06:21:21.444Z,4.57
2018-08-18T06:21:55.387Z,3.87
2018-08-18T06:22:29.495Z,4.27
2018-08-18T06:23:04.411Z,4.20
2018-08-18T06:23:39.310Z,4.10
2018-08-18T06:24:13.240Z,3.80
2018-08-18T06:24:47.119Z,5.00
2018-08-18T06:25:21.841Z,4.60
2018-08-18T06:25:56.024Z,4.07
2018-08-18T06:26:30.211Z,3.63
2018-08-18T06:27:04.081Z,4.20
2018-08-18T06:27:37.957Z,3.50
2018-08-18T06:28:13.458Z,4.00
2018-08-18T06:28:47.645Z,4.37
2018-08-18T06:29:21.630Z,4.00
2018-08-18T06:29:55.691Z,4.03
2018-08-18T06:30:29.516Z,4.20
2018-08-18T06:31:03.585Z,3.53
2018-08-18T06:31:53.061Z,3.73
2018-08-18T06:32:27.426Z,4.50
2018-08-18T06:33:01.589Z,3.83
2018-08-18T06:33:35.426Z,4.47
2018-08-18T06:34:09.292Z,4.87
2018-08-18T06:34:43.819Z,4.10
2018-08-18T06:35:18.111Z,4.43
2018-08-18T06:35:52.656Z,4.03
2018-08-18T06:36:26.810Z,4.50
2018-08-18T06:37:01.699Z,3.67
2018-08-18T06:37:35.520Z,4.83
2018-08-18T06:38:09.415Z,4.60
2018-08-18T06:38:43.277Z,4.30
2018-08-18T06:39:17.461Z,4.07
2018-08-18T06:39:55.962Z,4.93
2018-08-18T06:40:30.468Z,4.30
2018-08-18T06:41:04.698Z,4.77
2018-08-18T06:41:38.736Z,4.63
2018-08-18T06:42:24.270Z,4.30
2018-08-18T06:42:58.482Z,5.10
2018-08-18T06:43:33.685Z,4.50
2018-08-18T06:44:07.540Z,4.70
2018-08-18T06:44:41.393Z,4.17
2018-08-18T06:45:19.965Z,4.43
2018-08-18T06:45:53.856Z,4.97
2018-08-18T06:46:28.081Z,4.43
2018-08-18T06:47:01.916Z,4.50
2018-08-18T06:47:35.776Z,4.77
2018-08-18T06:48:17.820Z,4.30
2018-08-18T06:48:51.701Z,3.70
2018-08-18T06:49:25.588Z,3.67
2018-08-18T06:49:59.462Z,4.00
2018-08-18T06:50:38.708Z,3.80
2018-08-18T06:51:12.868Z,3.67
2018-08-18T06:51:47.056Z,4.30
2018-08-18T06:52:21.223Z,3.90
2018-08-18T06:52:55.080Z,5.13
2018-08-18T06:53:30.050Z,3.90
2018-08-18T06:54:03.908Z,3.03
2018-08-18T06:54:38.122Z,3.60
2018-08-18T06:55:15.834Z,3.40
2018-08-18T06:55:49.760Z,3.87
2018-08-18T06:56:23.624Z,3.70
2018-08-18T06:56:57.562Z,3.50
2018-08-18T06:57:43.134Z,3.50
2018-08-18T06:58:16.974Z,3.87
2018-08-18T06:58:50.800Z,3.80
2018-08-18T06:59:24.656Z,3.87
2018-08-18T07:00:05.862Z,3.80
2018-08-18T07:00:39.739Z,3.43
2018-08-18T07:01:14.273Z,3.33
2018-08-18T07:01:48.484Z,3.67
2018-08-18T07:02:25.002Z,3.47
2018-08-18T07:02:58.855Z,3.50
2018-08-18T07:03:37.485Z,3.47
2018-08-18T07:04:16.468Z,3.77
2018-08-18T07:04:50.357Z,3.30
2018-08-18T07:05:24.543Z,3.30
2018-08-18T07:05:58.443Z,3.67
2018-08-18T07:06:32.829Z,3.43
2018-08-18T07:07:07.026Z,3.47
2018-08-18T07:07:41.566Z,3.87
2018-08-18T07:08:15.416Z,3.57
2018-08-18T07:08:52.552Z,4.13
2018-08-18T07:09:26.398Z,3.43
2018-08-18T07:10:14.872Z,3.83
2018-08-18T07:10:49.050Z,4.17
2018-08-18T07:11:22.882Z,3.67
2018-08-18T07:11:56.720Z,3.40
2018-08-18T07:12:30.612Z,3.87
2018-08-18T07:13:05.864Z,3.27
2018-08-18T07:13:40.268Z,3.30
2018-08-18T07:14:14.488Z,3.70
2018-08-18T07:14:48.346Z,3.43
2018-08-18T07:15:23.970Z,3.50
2018-08-18T07:15:57.858Z,4.43
2018-08-18T07:16:32.062Z,3.80
2018-08-18T07:17:06.260Z,3.67
2018-08-18T07:17:40.748Z,3.73
2018-08-18T07:18:15.494Z,3.50
2018-08-18T07:18:49.369Z,3.27
2018-08-18T07:19:23.265Z,3.73
2018-08-18T07:19:57.240Z,3.80
2018-08-18T07:20:31.122Z,3.50
2018-08-18T07:21:05.562Z,3.50
2018-08-18T07:21:39.425Z,3.70
2018-08-18T07:22:17.152Z,3.33
2018-08-18T07:22:51.968Z,3.00
2018-08-18T07:23:26.174Z,3.17
2018-08-18T07:24:00.008Z,3.60
2018-08-18T07:24:33.864Z,3.27
2018-08-18T07:25:07.740Z,2.93
2018-08-18T07:25:48.010Z,3.27
2018-08-18T07:26:22.220Z,2.93
2018-08-18T07:26:56.037Z,3.10
2018-08-18T07:27:29.930Z,2.83
2018-08-18T07:28:10.151Z,3.23
2018-08-18T07:28:44.050Z,4.30
2018-08-18T07:29:18.031Z,2.80
2018-08-18T07:29:52.891Z,2.87
2018-08-18T07:30:27.742Z,3.07
2018-08-18T07:31:01.587Z,2.60
2018-08-18T07:31:35.456Z,2.70
2018-08-18T07:32:09.630Z,2.70
2018-08-18T07:32:43.786Z,2.83
2018-08-18T07:33:18.318Z,3.00
2018-08-18T07:33:52.476Z,3.00
2018-08-18T07:34:26.313Z,2.40
2018-08-18T07:35:00.166Z,2.60
2018-08-18T07:35:34.057Z,2.07
2018-08-18T07:36:07.996Z,2.47
2018-08-18T07:36:41.857Z,2.37
2018-08-18T07:37:15.827Z,2.33
2018-08-18T07:37:49.801Z,2.07
2018-08-18T07:38:23.928Z,2.00
2018-08-18T07:38:57.873Z,2.17
2018-08-18T07:39:31.889Z,1.90
2018-08-18T07:40:07.536Z,2.10
2018-08-18T07:40:44.919Z,1.40
2018-08-18T07:41:20.517Z,1.73
2018-08-18T07:41:54.706Z,1.87
2018-08-18T07:42:35.295Z,1.60
2018-08-18T07:43:09.424Z,1.90
2018-08-18T07:43:43.344Z,2.07
2018-08-18T07:44:17.192Z,2.17
2018-08-18T07:44:51.024Z,1.83
2018-08-18T07:45:24.872Z,1.97
2018-08-18T07:46:00.202Z,2.23
2018-08-18T07:46:34.075Z,1.80
2018-08-18T07:47:08.258Z,1.83
2018-08-18T07:47:42.090Z,1.70
2018-08-18T07:48:15.972Z,1.53
2018-08-18T07:48:49.826Z,1.73
2018-08-18T07:49:23.666Z,1.90
2018-08-18T07:49:57.508Z,1.80
2018-08-18T07:50:31.966Z,2.00
2018-08-18T07:51:06.221Z,1.67
2018-08-18T07:51:40.062Z,1.93
2018-08-18T07:52:13.900Z,1.50
2018-08-18T07:52:48.089Z,1.80
2018-08-18T07:53:22.394Z,1.47
2018-08-18T07:53:56.440Z,1.53
2018-08-18T07:54:30.650Z,1.73
2018-08-18T07:55:04.776Z,1.67